sensor_id;sensor_type;location;lat;lon;timestamp;pressure;altitude;pressure_sealevel;temperature;humidity
21011;BME280;10663;42.714;23.274;2023-01-25T00:01:04;95882.63;;;1.39;90.16
21011;BME280;10663;42.714;23.274;2023-01-25T00:02:35;95878.88;;;1.42;90.71
21011;BME280;10663;42.714;23.274;2023-01-25T00:04:06;95882.72;;;1.46;90.25
21011;BME280;10663;42.714;23.274;2023-01-25T00:05:37;95879.69;;;1.42;90.33
21011;BME280;10663;42.714;23.274;2023-01-25T00:07:08;95883.78;;;1.37;90.82
21011;BME280;10663;42.714;23.274;2023-01-25T00:08:39;95883.00;;;1.36;90.83
21011;BME280;10663;42.714;23.274;2023-01-25T00:10:10;95896.22;;;1.35;91.71
21011;BME280;10663;42.714;23.274;2023-01-25T00:11:41;95877.50;;;1.31;91.45
21011;BME280;10663;42.714;23.274;2023-01-25T00:13:12;95877.97;;;1.35;91.29
21011;BME280;10663;42.714;23.274;2023-01-25T00:14:44;95878.94;;;1.34;91.51
21011;BME280;10663;42.714;23.274;2023-01-25T00:16:15;95883.00;;;1.36;91.50
21011;BME280;10663;42.714;23.274;2023-01-25T00:17:45;95876.88;;;1.44;91.29
21011;BME280;10663;42.714;23.274;2023-01-25T00:19:16;95886.88;;;1.40;91.37
21011;BME280;10663;42.714;23.274;2023-01-25T00:20:47;95879.03;;;1.40;90.98
21011;BME280;10663;42.714;23.274;2023-01-25T00:22:18;95886.59;;;1.35;91.27
21011;BME280;10663;42.714;23.274;2023-01-25T00:23:49;95886.22;;;1.38;90.68
21011;BME280;10663;42.714;23.274;2023-01-25T00:25:20;95878.38;;;1.24;91.28
21011;BME280;10663;42.714;23.274;2023-01-25T00:26:51;95879.84;;;1.26;91.09
21011;BME280;10663;42.714;23.274;2023-01-25T00:28:22;95876.03;;;1.29;90.49
21011;BME280;10663;42.714;23.274;2023-01-25T00:29:53;95883.69;;;1.16;90.55
21011;BME280;10663;42.714;23.274;2023-01-25T00:33:32;95889.00;;;1.22;90.07
21011;BME280;10663;42.714;23.274;2023-01-25T00:35:03;95887.44;;;1.13;90.54
21011;BME280;10663;42.714;23.274;2023-01-25T00:38:30;95888.00;;;1.23;90.60
21011;BME280;10663;42.714;23.274;2023-01-25T00:40:04;95883.78;;;1.37;89.68
21011;BME280;10663;42.714;23.274;2023-01-25T00:41:35;95886.13;;;1.32;89.66
21011;BME280;10663;42.714;23.274;2023-01-25T00:43:06;95883.44;;;1.40;89.50
21011;BME280;10663;42.714;23.274;2023-01-25T00:44:38;95886.78;;;1.34;89.93
21011;BME280;10663;42.714;23.274;2023-01-25T00:46:14;95884.44;;;1.39;89.74
21011;BME280;10663;42.714;23.274;2023-01-25T00:47:45;95884.25;;;1.40;89.13
21011;BME280;10663;42.714;23.274;2023-01-25T00:49:21;95881.00;;;1.38;88.98
21011;BME280;10663;42.714;23.274;2023-01-25T00:50:52;95879.84;;;1.41;88.78
21011;BME280;10663;42.714;23.274;2023-01-25T00:52:23;95882.91;;;1.44;88.18
21011;BME280;10663;42.714;23.274;2023-01-25T00:53:54;95887.34;;;1.44;88.48
21011;BME280;10663;42.714;23.274;2023-01-25T00:55:25;95884.72;;;1.44;88.57
21011;BME280;10663;42.714;23.274;2023-01-25T00:56:56;95888.56;;;1.48;88.39
21011;BME280;10663;42.714;23.274;2023-01-25T00:58:27;95885.63;;;1.51;88.13
21011;BME280;10663;42.714;23.274;2023-01-25T00:59:58;95884.34;;;1.47;88.03
21011;BME280;10663;42.714;23.274;2023-01-25T01:01:29;95896.41;;;1.48;88.13
21011;BME280;10663;42.714;23.274;2023-01-25T01:03:00;95887.41;;;1.50;88.01
21011;BME280;10663;42.714;23.274;2023-01-25T01:04:31;95884.72;;;1.44;87.95
21011;BME280;10663;42.714;23.274;2023-01-25T01:06:08;95881.94;;;1.45;87.98
21011;BME280;10663;42.714;23.274;2023-01-25T01:07:39;95880.91;;;1.46;87.94
21011;BME280;10663;42.714;23.274;2023-01-25T01:09:13;95877.41;;;1.39;87.58
21011;BME280;10663;42.714;23.274;2023-01-25T01:10:44;95878.88;;;1.42;87.67
21011;BME280;10663;42.714;23.274;2023-01-25T01:12:16;95881.31;;;1.43;87.57
21011;BME280;10663;42.714;23.274;2023-01-25T01:13:47;95883.00;;;1.36;87.69
21011;BME280;10663;42.714;23.274;2023-01-25T01:15:18;95874.53;;;1.34;87.48
21011;BME280;10663;42.714;23.274;2023-01-25T01:16:49;95880.19;;;1.38;87.70
21011;BME280;10663;42.714;23.274;2023-01-25T01:18:21;95879.22;;;1.39;87.27
21011;BME280;10663;42.714;23.274;2023-01-25T01:19:52;95876.88;;;1.44;86.71
21011;BME280;10663;42.714;23.274;2023-01-25T01:21:23;95879.13;;;1.47;86.32
21011;BME280;10663;42.714;23.274;2023-01-25T01:22:54;95878.50;;;1.45;86.33
21011;BME280;10663;42.714;23.274;2023-01-25T01:24:25;95873.09;;;1.46;86.43
21011;BME280;10663;42.714;23.274;2023-01-25T01:25:59;95870.31;;;1.48;86.35
21011;BME280;10663;42.714;23.274;2023-01-25T01:27:30;95874.88;;;1.46;86.22
21011;BME280;10663;42.714;23.274;2023-01-25T01:29:01;95866.88;;;1.47;86.18
21011;BME280;10663;42.714;23.274;2023-01-25T01:30:32;95864.28;;;1.47;85.83
21011;BME280;10663;42.714;23.274;2023-01-25T01:32:04;95860.69;;;1.48;86.56
21011;BME280;10663;42.714;23.274;2023-01-25T01:33:35;95865.66;;;1.43;86.36
21011;BME280;10663;42.714;23.274;2023-01-25T01:35:06;95868.69;;;1.47;86.04
21011;BME280;10663;42.714;23.274;2023-01-25T01:36:37;95866.63;;;1.42;85.97
21011;BME280;10663;42.714;23.274;2023-01-25T01:38:08;95868.59;;;1.40;86.22
21011;BME280;10663;42.714;23.274;2023-01-25T01:39:39;95864.38;;;1.39;86.41
21011;BME280;10663;42.714;23.274;2023-01-25T01:41:11;95865.34;;;1.38;86.78
21011;BME280;10663;42.714;23.274;2023-01-25T01:42:56;95865.34;;;1.38;86.23
21011;BME280;10663;42.714;23.274;2023-01-25T01:44:48;95871.03;;;1.42;86.68
21011;BME280;10663;42.714;23.274;2023-01-25T01:46:28;95861.75;;;1.39;86.85
21011;BME280;10663;42.714;23.274;2023-01-25T01:48:03;95859.88;;;1.33;86.96
21011;BME280;10663;42.714;23.274;2023-01-25T01:49:34;95860.84;;;1.32;86.97
21011;BME280;10663;42.714;23.274;2023-01-25T01:52:55;95856.63;;;1.31;87.20
21011;BME280;10663;42.714;23.274;2023-01-25T01:56:25;95855.97;;;1.29;87.46
21011;BME280;10663;42.714;23.274;2023-01-25T01:57:59;95855.97;;;1.29;87.66
21011;BME280;10663;42.714;23.274;2023-01-25T01:59:37;95860.03;;;1.32;87.34
21011;BME280;10663;42.714;23.274;2023-01-25T02:01:10;95854.34;;;1.28;87.71
21011;BME280;10663;42.714;23.274;2023-01-25T02:02:41;95860.78;;;1.26;87.71
21011;BME280;10663;42.714;23.274;2023-01-25T02:04:14;95866.78;;;1.26;87.75
21011;BME280;10663;42.714;23.274;2023-01-25T02:06:00;95862.91;;;1.22;88.15
21011;BME280;10663;42.714;23.274;2023-01-25T02:07:35;95865.88;;;1.19;88.82
21011;BME280;10663;42.714;23.274;2023-01-25T02:09:06;95863.91;;;1.21;88.32
21011;BME280;10663;42.714;23.274;2023-01-25T02:10:38;95866.66;;;1.05;88.86
21011;BME280;10663;42.714;23.274;2023-01-25T02:12:12;95861.44;;;1.05;89.09
21011;BME280;10663;42.714;23.274;2023-01-25T02:13:43;95856.69;;;1.08;89.53
21011;BME280;10663;42.714;23.274;2023-01-25T02:15:19;95861.03;;;1.16;88.95
21011;BME280;10663;42.714;23.274;2023-01-25T02:16:50;95859.75;;;1.12;89.08
21011;BME280;10663;42.714;23.274;2023-01-25T02:18:22;95856.44;;;1.18;88.89
21011;BME280;10663;42.714;23.274;2023-01-25T02:21:42;95856.69;;;1.08;89.23
21011;BME280;10663;42.714;23.274;2023-01-25T02:23:35;95862.44;;;1.04;88.53
21011;BME280;10663;42.714;23.274;2023-01-25T02:25:12;95863.88;;;1.06;88.70
21011;BME280;10663;42.714;23.274;2023-01-25T02:26:45;95866.94;;;1.10;88.62
21011;BME280;10663;42.714;23.274;2023-01-25T02:28:23;95852.81;;;1.04;88.85
21011;BME280;10663;42.714;23.274;2023-01-25T02:29:57;95853.16;;;1.01;89.32
21011;BME280;10663;42.714;23.274;2023-01-25T02:31:29;95860.53;;;0.98;89.94
21011;BME280;10663;42.714;23.274;2023-01-25T02:33:00;95864.84;;;0.91;89.94
21011;BME280;10663;42.714;23.274;2023-01-25T02:34:31;95867.31;;;0.84;90.59
21011;BME280;10663;42.714;23.274;2023-01-25T02:37:38;95853.69;;;0.97;89.57
21011;BME280;10663;42.714;23.274;2023-01-25T02:39:14;95856.66;;;0.94;89.95
21011;BME280;10663;42.714;23.274;2023-01-25T02:40:53;95857.69;;;0.85;90.06
21011;BME280;10663;42.714;23.274;2023-01-25T02:42:29;95858.28;;;0.95;89.57
21011;BME280;10663;42.714;23.274;2023-01-25T02:44:06;95849.13;;;0.99;89.29
21011;BME280;10663;42.714;23.274;2023-01-25T02:45:38;95852.97;;;1.03;89.20
21011;BME280;10663;42.714;23.274;2023-01-25T02:47:09;95846.84;;;0.96;88.85
21011;BME280;10663;42.714;23.274;2023-01-25T02:48:40;95846.69;;;0.97;88.77
21011;BME280;10663;42.714;23.274;2023-01-25T02:50:10;95853.53;;;0.98;89.13
21011;BME280;10663;42.714;23.274;2023-01-25T02:51:46;95847.50;;;0.98;88.88
21011;BME280;10663;42.714;23.274;2023-01-25T02:53:18;95848.31;;;0.98;88.34
21011;BME280;10663;42.714;23.274;2023-01-25T02:54:50;95851.34;;;0.87;89.02
21011;BME280;10663;42.714;23.274;2023-01-25T02:56:22;95852.59;;;0.91;89.31
21011;BME280;10663;42.714;23.274;2023-01-25T02:57:53;95837.34;;;1.03;88.88
21011;BME280;10663;42.714;23.274;2023-01-25T02:59:24;95853.16;;;1.01;88.50
21011;BME280;10663;42.714;23.274;2023-01-25T03:00:59;95852.88;;;0.96;89.04
21011;BME280;10663;42.714;23.274;2023-01-25T03:02:31;95853.69;;;0.97;89.22
21011;BME280;10663;42.714;23.274;2023-01-25T03:04:04;95853.16;;;1.01;88.99
21011;BME280;10663;42.714;23.274;2023-01-25T03:05:36;95849.47;;;1.10;89.31
21011;BME280;10663;42.714;23.274;2023-01-25T03:07:08;95846.44;;;1.07;89.16
21011;BME280;10663;42.714;23.274;2023-01-25T03:08:39;95857.03;;;1.05;89.00
21011;BME280;10663;42.714;23.274;2023-01-25T03:10:10;95855.50;;;1.11;89.00
21011;BME280;10663;42.714;23.274;2023-01-25T03:11:41;95858.50;;;1.08;89.10
21011;BME280;10663;42.714;23.274;2023-01-25T03:13:13;95853.84;;;1.18;89.57
21011;BME280;10663;42.714;23.274;2023-01-25T03:14:44;95855.50;;;1.11;89.65
21011;BME280;10663;42.714;23.274;2023-01-25T03:16:15;95853.47;;;1.21;89.18
21011;BME280;10663;42.714;23.274;2023-01-25T03:17:48;95852.13;;;1.25;89.29
21011;BME280;10663;42.714;23.274;2023-01-25T03:19:19;95853.13;;;1.24;89.04
21011;BME280;10663;42.714;23.274;2023-01-25T03:20:50;95854.44;;;1.20;89.61
21011;BME280;10663;42.714;23.274;2023-01-25T03:22:21;95850.41;;;1.18;89.23
21011;BME280;10663;42.714;23.274;2023-01-25T03:23:56;95855.00;;;1.16;89.67
21011;BME280;10663;42.714;23.274;2023-01-25T03:25:28;95850.59;;;1.16;89.41
21011;BME280;10663;42.714;23.274;2023-01-25T03:27:10;95854.19;;;1.15;88.81
21011;BME280;10663;42.714;23.274;2023-01-25T03:28:55;95844.81;;;1.06;88.67
21011;BME280;10663;42.714;23.274;2023-01-25T03:30:26;95853.28;;;1.08;88.64
21011;BME280;10663;42.714;23.274;2023-01-25T03:31:58;95858.50;;;1.08;88.42
21011;BME280;10663;42.714;23.274;2023-01-25T03:33:29;95850.19;;;1.04;88.53
21011;BME280;10663;42.714;23.274;2023-01-25T03:35:00;95853.44;;;1.06;88.80
21011;BME280;10663;42.714;23.274;2023-01-25T03:36:32;95843.75;;;1.15;88.41
21011;BME280;10663;42.714;23.274;2023-01-25T03:38:03;95852.81;;;1.19;88.69
21011;BME280;10663;42.714;23.274;2023-01-25T03:39:34;95856.72;;;1.23;87.78
21011;BME280;10663;42.714;23.274;2023-01-25T03:41:05;95842.38;;;1.19;87.73
21011;BME280;10663;42.714;23.274;2023-01-25T03:42:45;95845.47;;;1.23;87.84
21011;BME280;10663;42.714;23.274;2023-01-25T03:44:16;95849.13;;;1.13;87.98
21011;BME280;10663;42.714;23.274;2023-01-25T03:45:54;95844.09;;;1.12;87.80
21011;BME280;10663;42.714;23.274;2023-01-25T03:47:25;95841.41;;;1.20;88.07
21011;BME280;10663;42.714;23.274;2023-01-25T03:48:57;95848.06;;;1.08;86.93
21011;BME280;10663;42.714;23.274;2023-01-25T03:50:28;95853.84;;;0.81;87.40
21011;BME280;10663;42.714;23.274;2023-01-25T03:51:59;95849.78;;;0.78;88.72
21011;BME280;10663;42.714;23.274;2023-01-25T03:53:38;95835.44;;;0.97;88.16
21011;BME280;10663;42.714;23.274;2023-01-25T03:55:18;95841.22;;;1.07;87.78
21011;BME280;10663;42.714;23.274;2023-01-25T03:56:50;95834.81;;;1.09;87.58
21011;BME280;10663;42.714;23.274;2023-01-25T03:58:30;95834.47;;;1.12;87.03
21011;BME280;10663;42.714;23.274;2023-01-25T04:00:01;95836.56;;;1.17;86.62
21011;BME280;10663;42.714;23.274;2023-01-25T04:01:37;95837.63;;;1.23;86.73
21011;BME280;10663;42.714;23.274;2023-01-25T04:03:07;95834.47;;;1.12;86.91
21011;BME280;10663;42.714;23.274;2023-01-25T04:04:39;95838.53;;;1.15;86.74
21011;BME280;10663;42.714;23.274;2023-01-25T04:06:11;95833.56;;;1.20;86.88
21011;BME280;10663;42.714;23.274;2023-01-25T04:07:43;95827.38;;;1.21;86.78
21011;BME280;10663;42.714;23.274;2023-01-25T04:09:13;95831.34;;;1.17;86.46
21011;BME280;10663;42.714;23.274;2023-01-25T04:10:51;95833.56;;;1.05;87.11
21011;BME280;10663;42.714;23.274;2023-01-25T04:12:24;95830.06;;;1.13;86.79
21011;BME280;10663;42.714;23.274;2023-01-25T04:13:56;95833.66;;;1.12;86.77
21011;BME280;10663;42.714;23.274;2023-01-25T04:15:29;95828.81;;;1.09;87.03
21011;BME280;10663;42.714;23.274;2023-01-25T04:17:05;95832.50;;;1.15;86.83
21011;BME280;10663;42.714;23.274;2023-01-25T04:19:03;95828.81;;;1.09;86.86
21011;BME280;10663;42.714;23.274;2023-01-25T04:20:35;95825.09;;;1.03;87.11
21011;BME280;10663;42.714;23.274;2023-01-25T04:22:06;95831.06;;;1.12;87.04
21011;BME280;10663;42.714;23.274;2023-01-25T04:23:41;95826.81;;;1.11;86.63
21011;BME280;10663;42.714;23.274;2023-01-25T04:25:12;95826.66;;;1.12;86.74
21011;BME280;10663;42.714;23.274;2023-01-25T04:26:50;95828.72;;;1.17;86.61
21011;BME280;10663;42.714;23.274;2023-01-25T04:28:22;95828.81;;;1.09;86.29
21011;BME280;10663;42.714;23.274;2023-01-25T04:29:53;95832.84;;;1.11;86.32
21011;BME280;10663;42.714;23.274;2023-01-25T04:31:28;95829.16;;;1.06;86.59
21011;BME280;10663;42.714;23.274;2023-01-25T04:33:04;95828.53;;;1.04;86.81
21011;BME280;10663;42.714;23.274;2023-01-25T04:34:37;95825.41;;;1.08;86.48
21011;BME280;10663;42.714;23.274;2023-01-25T04:36:10;95832.41;;;1.08;86.58
21011;BME280;10663;42.714;23.274;2023-01-25T04:37:42;95834.38;;;1.21;87.23
21011;BME280;10663;42.714;23.274;2023-01-25T04:39:13;95842.38;;;1.19;86.51
21011;BME280;10663;42.714;23.274;2023-01-25T04:40:45;95841.41;;;1.20;86.74
21011;BME280;10663;42.714;23.274;2023-01-25T04:42:16;95838.19;;;1.18;86.56
21011;BME280;10663;42.714;23.274;2023-01-25T04:43:50;95845.00;;;1.19;86.52
21011;BME280;10663;42.714;23.274;2023-01-25T04:45:23;95844.91;;;1.12;86.74
21011;BME280;10663;42.714;23.274;2023-01-25T04:46:55;95844.63;;;1.07;86.75
21011;BME280;10663;42.714;23.274;2023-01-25T04:48:26;95843.09;;;0.98;87.00
21011;BME280;10663;42.714;23.274;2023-01-25T04:50:00;95848.75;;;1.02;87.32
21011;BME280;10663;42.714;23.274;2023-01-25T04:51:34;95837.81;;;1.06;86.63
21011;BME280;10663;42.714;23.274;2023-01-25T04:53:07;95840.03;;;1.09;87.18
21011;BME280;10663;42.714;23.274;2023-01-25T04:54:38;95839.03;;;1.10;86.64
21011;BME280;10663;42.714;23.274;2023-01-25T04:56:09;95835.03;;;1.08;86.54
21011;BME280;10663;42.714;23.274;2023-01-25T04:58:00;95836.25;;;1.12;86.87
21011;BME280;10663;42.714;23.274;2023-01-25T04:59:31;95835.63;;;1.10;86.96
21011;BME280;10663;42.714;23.274;2023-01-25T05:01:03;95845.16;;;1.03;87.61
21011;BME280;10663;42.714;23.274;2023-01-25T05:02:35;95837.81;;;0.84;87.87
21011;BME280;10663;42.714;23.274;2023-01-25T05:04:06;95833.47;;;0.99;87.75
21011;BME280;10663;42.714;23.274;2023-01-25T05:05:46;95835.44;;;0.97;88.14
21011;BME280;10663;42.714;23.274;2023-01-25T05:07:24;95839.84;;;0.96;88.25
21011;BME280;10663;42.714;23.274;2023-01-25T05:08:55;95839.41;;;1.07;88.04
21011;BME280;10663;42.714;23.274;2023-01-25T05:10:28;95840.84;;;1.10;87.91
21011;BME280;10663;42.714;23.274;2023-01-25T05:12:17;95834.72;;;1.03;88.39
21011;BME280;10663;42.714;23.274;2023-01-25T05:14:01;95831.13;;;1.04;88.72
21011;BME280;10663;42.714;23.274;2023-01-25T05:15:35;95835.19;;;1.06;89.05
21011;BME280;10663;42.714;23.274;2023-01-25T05:17:07;95829.50;;;1.03;89.41
21011;BME280;10663;42.714;23.274;2023-01-25T05:18:40;95836.00;;;1.07;89.94
21011;BME280;10663;42.714;23.274;2023-01-25T05:20:11;95828.19;;;1.07;89.58
21011;BME280;10663;42.714;23.274;2023-01-25T05:21:42;95833.66;;;1.12;89.44
21011;BME280;10663;42.714;23.274;2023-01-25T05:23:30;95834.75;;;1.18;89.77
21011;BME280;10663;42.714;23.274;2023-01-25T05:25:02;95826.94;;;1.18;90.35
21011;BME280;10663;42.714;23.274;2023-01-25T05:26:33;95829.97;;;1.21;90.20
21011;BME280;10663;42.714;23.274;2023-01-25T05:28:22;95827.19;;;1.23;90.37
21011;BME280;10663;42.714;23.274;2023-01-25T05:30:22;95829.63;;;1.24;90.96
21011;BME280;10663;42.714;23.274;2023-01-25T05:32:04;95826.69;;;1.27;90.79
21011;BME280;10663;42.714;23.274;2023-01-25T05:33:36;95827.03;;;1.24;90.76
21011;BME280;10663;42.714;23.274;2023-01-25T05:35:07;95835.03;;;1.23;91.03
21011;BME280;10663;42.714;23.274;2023-01-25T05:36:38;95826.69;;;1.27;91.36
21011;BME280;10663;42.714;23.274;2023-01-25T05:38:09;95830.44;;;1.25;91.57
21011;BME280;10663;42.714;23.274;2023-01-25T05:39:40;95827.84;;;1.25;91.36
21011;BME280;10663;42.714;23.274;2023-01-25T05:41:11;95832.34;;;1.31;91.12
21011;BME280;10663;42.714;23.274;2023-01-25T05:42:42;95835.28;;;1.13;92.23
21011;BME280;10663;42.714;23.274;2023-01-25T05:44:19;95833.03;;;1.10;91.52
21011;BME280;10663;42.714;23.274;2023-01-25T05:45:53;95828.88;;;1.01;90.71
21011;BME280;10663;42.714;23.274;2023-01-25T05:47:24;95834.72;;;1.03;90.59
21011;BME280;10663;42.714;23.274;2023-01-25T05:48:55;95835.72;;;1.02;90.59
21011;BME280;10663;42.714;23.274;2023-01-25T05:50:28;95842.84;;;1.08;91.45
21011;BME280;10663;42.714;23.274;2023-01-25T05:52:13;95836.09;;;1.13;91.67
21011;BME280;10663;42.714;23.274;2023-01-25T05:53:45;95840.31;;;1.15;91.80
21011;BME280;10663;42.714;23.274;2023-01-25T05:55:16;95838.53;;;1.15;92.14
21011;BME280;10663;42.714;23.274;2023-01-25T05:56:48;95839.50;;;1.14;92.46
21011;BME280;10663;42.714;23.274;2023-01-25T05:58:20;95839.50;;;1.14;92.10
21011;BME280;10663;42.714;23.274;2023-01-25T05:59:51;95847.34;;;1.14;92.25
21011;BME280;10663;42.714;23.274;2023-01-25T06:01:24;95843.19;;;1.20;92.66
21011;BME280;10663;42.714;23.274;2023-01-25T06:03:00;95842.84;;;1.23;92.55
21011;BME280;10663;42.714;23.274;2023-01-25T06:04:31;95839.59;;;1.21;93.00
21011;BME280;10663;42.714;23.274;2023-01-25T06:06:02;95836.72;;;1.16;92.81
21011;BME280;10663;42.714;23.274;2023-01-25T06:07:35;95839.44;;;1.22;92.57
21011;BME280;10663;42.714;23.274;2023-01-25T06:09:06;95841.16;;;1.30;92.20
21011;BME280;10663;42.714;23.274;2023-01-25T06:10:38;95837.63;;;1.23;92.27
21011;BME280;10663;42.714;23.274;2023-01-25T06:12:09;95848.53;;;1.26;92.36
21011;BME280;10663;42.714;23.274;2023-01-25T06:13:40;95847.34;;;1.29;92.11
21011;BME280;10663;42.714;23.274;2023-01-25T06:15:11;95842.34;;;1.27;92.03
21011;BME280;10663;42.714;23.274;2023-01-25T06:16:42;95851.16;;;1.26;92.33
21011;BME280;10663;42.714;23.274;2023-01-25T06:18:33;95848.78;;;1.31;92.67
21011;BME280;10663;42.714;23.274;2023-01-25T06:20:27;95844.22;;;1.33;92.48
21011;BME280;10663;42.714;23.274;2023-01-25T06:22:09;95848.44;;;1.34;92.84
21011;BME280;10663;42.714;23.274;2023-01-25T06:23:40;95850.69;;;1.37;92.35
21011;BME280;10663;42.714;23.274;2023-01-25T06:25:11;95847.25;;;1.37;92.02
21011;BME280;10663;42.714;23.274;2023-01-25T06:26:41;95854.56;;;1.27;91.94
21011;BME280;10663;42.714;23.274;2023-01-25T06:28:12;95851.22;;;1.33;92.07
21011;BME280;10663;42.714;23.274;2023-01-25T06:29:43;95851.75;;;1.28;92.15
21011;BME280;10663;42.714;23.274;2023-01-25T06:31:16;95848.78;;;1.31;91.91
21011;BME280;10663;42.714;23.274;2023-01-25T06:32:47;95839.91;;;1.40;92.25
21011;BME280;10663;42.714;23.274;2023-01-25T06:34:20;95844.75;;;1.43;91.88
21011;BME280;10663;42.714;23.274;2023-01-25T06:35:51;95839.53;;;1.43;91.60
21011;BME280;10663;42.714;23.274;2023-01-25T06:37:22;95844.03;;;1.49;91.72
21011;BME280;10663;42.714;23.274;2023-01-25T06:38:53;95842.50;;;1.55;92.61
21011;BME280;10663;42.714;23.274;2023-01-25T06:40:24;95845.47;;;1.52;92.68
21011;BME280;10663;42.714;23.274;2023-01-25T06:41:55;95845.47;;;1.52;92.07
21011;BME280;10663;42.714;23.274;2023-01-25T06:43:26;95845.91;;;1.56;92.29
21011;BME280;10663;42.714;23.274;2023-01-25T06:44:57;95835.47;;;1.56;91.74
21011;BME280;10663;42.714;23.274;2023-01-25T06:46:31;95839.88;;;1.55;92.08
21011;BME280;10663;42.714;23.274;2023-01-25T06:48:02;95838.09;;;1.56;92.46
21011;BME280;10663;42.714;23.274;2023-01-25T06:49:33;95840.34;;;1.59;92.44
21011;BME280;10663;42.714;23.274;2023-01-25T06:51:06;95839.63;;;1.65;92.32
21011;BME280;10663;42.714;23.274;2023-01-25T06:52:37;95836.50;;;1.55;91.91
21011;BME280;10663;42.714;23.274;2023-01-25T06:54:08;95846.28;;;1.53;92.65
21011;BME280;10663;42.714;23.274;2023-01-25T06:55:39;95842.78;;;1.45;92.32
21011;BME280;10663;42.714;23.274;2023-01-25T06:57:10;95846.19;;;1.61;92.93
21011;BME280;10663;42.714;23.274;2023-01-25T06:58:41;95843.50;;;1.54;92.79
21011;BME280;10663;42.714;23.274;2023-01-25T07:00:14;95837.38;;;1.62;92.90
21011;BME280;10663;42.714;23.274;2023-01-25T07:01:46;95844.41;;;1.61;92.66
21011;BME280;10663;42.714;23.274;2023-01-25T07:03:16;95837.22;;;1.63;92.57
21011;BME280;10663;42.714;23.274;2023-01-25T07:04:47;95833.41;;;1.66;92.58
21011;BME280;10663;42.714;23.274;2023-01-25T07:06:18;95842.44;;;1.63;92.95
21011;BME280;10663;42.714;23.274;2023-01-25T07:07:50;95844.47;;;1.68;93.75
21011;BME280;10663;42.714;23.274;2023-01-25T07:09:21;95839.81;;;1.63;93.19
21011;BME280;10663;42.714;23.274;2023-01-25T07:10:58;95839.25;;;1.68;93.12
21011;BME280;10663;42.714;23.274;2023-01-25T07:12:29;95834.31;;;1.73;92.44
21011;BME280;10663;42.714;23.274;2023-01-25T07:14:02;95830.38;;;1.62;92.90
21011;BME280;10663;42.714;23.274;2023-01-25T07:15:33;95831.34;;;1.46;93.24
21011;BME280;10663;42.714;23.274;2023-01-25T07:17:04;95834.78;;;1.62;93.13
21011;BME280;10663;42.714;23.274;2023-01-25T07:18:34;95838.38;;;1.61;93.08
21011;BME280;10663;42.714;23.274;2023-01-25T07:20:07;95839.97;;;1.76;93.07
21011;BME280;10663;42.714;23.274;2023-01-25T07:21:38;95834.56;;;1.78;93.27
21011;BME280;10663;42.714;23.274;2023-01-25T07:23:09;95843.19;;;1.93;92.94
21011;BME280;10663;42.714;23.274;2023-01-25T07:24:40;95847.59;;;1.93;92.32
21011;BME280;10663;42.714;23.274;2023-01-25T07:26:22;95844.91;;;1.86;92.19
21011;BME280;10663;42.714;23.274;2023-01-25T07:27:53;95841.94;;;1.89;92.37
21011;BME280;10663;42.714;23.274;2023-01-25T07:29:24;95847.94;;;2.04;92.74
21011;BME280;10663;42.714;23.274;2023-01-25T07:30:55;95850.56;;;2.04;91.70
21011;BME280;10663;42.714;23.274;2023-01-25T07:32:26;95853.06;;;2.12;91.38
21011;BME280;10663;42.714;23.274;2023-01-25T07:33:58;95850.91;;;2.01;91.33
21011;BME280;10663;42.714;23.274;2023-01-25T07:35:30;95849.59;;;1.91;91.38
21011;BME280;10663;42.714;23.274;2023-01-25T07:37:01;95856.13;;;2.01;91.29
21011;BME280;10663;42.714;23.274;2023-01-25T07:38:33;95865.78;;;2.01;90.62
21011;BME280;10663;42.714;23.274;2023-01-25T07:40:04;95857.47;;;2.12;91.04
21011;BME280;10663;42.714;23.274;2023-01-25T07:41:35;95859.22;;;2.05;90.96
21011;BME280;10663;42.714;23.274;2023-01-25T07:43:06;95860.09;;;2.12;90.38
21011;BME280;10663;42.714;23.274;2023-01-25T07:44:40;95862.16;;;2.02;91.04
21011;BME280;10663;42.714;23.274;2023-01-25T07:46:15;95867.78;;;1.99;91.24
21011;BME280;10663;42.714;23.274;2023-01-25T07:47:46;95866.16;;;1.83;91.58
21011;BME280;10663;42.714;23.274;2023-01-25T07:49:17;95860.13;;;1.97;91.65
21011;BME280;10663;42.714;23.274;2023-01-25T07:50:48;95864.69;;;2.10;90.94
21011;BME280;10663;42.714;23.274;2023-01-25T07:52:19;95859.66;;;2.08;90.00
21011;BME280;10663;42.714;23.274;2023-01-25T07:53:58;95857.22;;;2.07;90.05
21011;BME280;10663;42.714;23.274;2023-01-25T07:55:30;95859.78;;;2.00;90.07
21011;BME280;10663;42.714;23.274;2023-01-25T07:57:01;95855.03;;;2.10;90.28
21011;BME280;10663;42.714;23.274;2023-01-25T07:58:32;95853.34;;;2.17;89.56
21011;BME280;10663;42.714;23.274;2023-01-25T08:00:04;95858.63;;;2.24;89.46
21011;BME280;10663;42.714;23.274;2023-01-25T08:01:42;95862.28;;;2.30;89.01
21011;BME280;10663;42.714;23.274;2023-01-25T08:03:13;95855.44;;;2.29;88.36
21011;BME280;10663;42.714;23.274;2023-01-25T08:04:45;95852.28;;;2.33;88.32
21011;BME280;10663;42.714;23.274;2023-01-25T08:06:16;95857.16;;;2.36;88.89
21011;BME280;10663;42.714;23.274;2023-01-25T08:07:47;95850.38;;;2.42;88.60
21011;BME280;10663;42.714;23.274;2023-01-25T08:09:18;95853.81;;;2.42;88.49
21011;BME280;10663;42.714;23.274;2023-01-25T08:10:51;95857.22;;;2.43;87.79
21011;BME280;10663;42.714;23.274;2023-01-25T08:12:23;95859.09;;;2.49;87.77
21011;BME280;10663;42.714;23.274;2023-01-25T08:13:56;95854.84;;;2.48;87.82
21011;BME280;10663;42.714;23.274;2023-01-25T08:15:27;95855.75;;;2.55;87.50
21011;BME280;10663;42.714;23.274;2023-01-25T08:16:58;95849.91;;;2.53;86.79
21011;BME280;10663;42.714;23.274;2023-01-25T08:18:29;95845.66;;;2.52;87.06
21011;BME280;10663;42.714;23.274;2023-01-25T08:20:00;95846.81;;;2.49;87.04
21011;BME280;10663;42.714;23.274;2023-01-25T08:21:33;95847.09;;;2.54;87.51
21011;BME280;10663;42.714;23.274;2023-01-25T08:23:04;95844.09;;;2.57;87.12
21011;BME280;10663;42.714;23.274;2023-01-25T08:24:35;95842.03;;;2.53;87.63